Ever Develop — 3FLF8 — position and weather

sailwx.info

Track history (hours):
 
Tides and Currents Weather Stations Pressure Air Temp Water Temp Dewpoint Dewpoint Depression Visibility Wind Speed Wind Dir Waves Ship Positions

Ever Develop

Last reported at 2017-Sep-17 19:09 UTC. Time now 2017-Oct-19 05:42 UTC.
Position N 01°19' E 103°18'.
Warning: this ship's position is 31 days out of date.

Type: Ship (hazmat cat D). MMSI: 356391000.

Date/timePositionNaut miles runAvg speedWind from/ knotsBaromVisibWave heightAir tempDewpointWater temp
2017-Sep-17 19:09N 01°19' E 103°18'214.9
2017-Sep-17 18:59N 01°18' E 103°20'714.8
2017-Sep-17 18:30N 01°14' E 103°26'714.2
2017-Sep-17 18:01N 01°12' E 103°33'612.6
2017-Sep-17 17:30N 01°12' E 103°39'5 9.9
2017-Sep-17 17:00N 01°15' E 103°43'4 7.4
2017-Sep-17 16:30N 01°16' E 103°47'0 0.4
2017-Sep-17 16:00N 01°16' E 103°47'0 0.0
2017-Sep-17 15:27N 01°16' E 103°47'0 0.0
2017-Sep-17 15:00N 01°16' E 103°47'0 0.0
2017-Sep-17 14:30N 01°16' E 103°47'0 0.0
2017-Sep-17 14:00N 01°16' E 103°47'0 0.0
2017-Sep-17 13:30N 01°16' E 103°47'0 0.0
2017-Sep-17 12:57N 01°16' E 103°47'0 0.0
2017-Sep-17 12:30N 01°16' E 103°47'0 0.0
2017-Sep-17 12:00N 01°16' E 103°47'0 0.0
2017-Sep-17 11:27N 01°16' E 103°47'0 0.1
2017-Sep-17 10:57N 01°16' E 103°47'0 0.0
2017-Sep-17 10:27N 01°16' E 103°47'0 0.0
2017-Sep-17 10:00N 01°16' E 103°47'0 0.0
2017-Sep-17 09:30N 01°16' E 103°47'0 0.1
2017-Sep-17 09:00N 01°16' E 103°47'0 0.1
2017-Sep-17 08:30N 01°16' E 103°47'0 0.0
2017-Sep-17 08:00N 01°16' E 103°47'0 0.0
2017-Sep-17 07:30N 01°16' E 103°47'0 0.0
2017-Sep-17 07:00N 01°16' E 103°47'0 0.0
2017-Sep-17 06:30N 01°16' E 103°47'0 0.0
2017-Sep-17 05:57N 01°16' E 103°47'0 0.0
2017-Sep-17 05:30N 01°16' E 103°47'0 0.1
2017-Sep-17 05:01N 01°16' E 103°47'2 3.7
2017-Sep-17 04:31N 01°15' E 103°45'4 8.9
2017-Sep-17 04:01N 01°13' E 103°41'0 0.7
2017-Sep-17 03:29N 01°13' E 103°41'0 0.1
2017-Sep-17 02:53N 01°13' E 103°41'0 0.1
2017-Sep-17 02:29N 01°13' E 103°41'0 0.1
2017-Sep-17 01:56N 01°13' E 103°41'0 0.0
2017-Sep-17 01:29N 01°13' E 103°41'0 0.1
2017-Sep-17 00:56N 01°13' E 103°41'0 0.0
2017-Sep-17 00:29N 01°13' E 103°41'0 0.2
2017-Sep-16 23:56N 01°13' E 103°41'0 0.2
2017-Sep-16 23:29N 01°13' E 103°41'0 0.2
2017-Sep-16 22:59N 01°13' E 103°41'0 0.0
2017-Sep-16 22:29N 01°13' E 103°41'0 0.1
2017-Sep-16 21:56N 01°13' E 103°41'0 0.0
2017-Sep-16 21:29N 01°13' E 103°41'0 0.0
2017-Sep-16 20:56N 01°13' E 103°41'0 0.0
2017-Sep-16 20:29N 01°13' E 103°41'0 0.0
2017-Sep-16 19:56N 01°13' E 103°41'0 0.0
2017-Sep-16 19:29N 01°13' E 103°41'0 0.0
2017-Sep-16 18:56N 01°13' E 103°41'0 0.0
2017-Sep-16 18:29N 01°13' E 103°41'0 0.0
2017-Sep-16 17:59N 01°13' E 103°41'0 0.0
2017-Sep-16 17:29N 01°13' E 103°41'0 0.0
2017-Sep-16 16:59N 01°13' E 103°41'0 0.0
2017-Sep-16 16:29N 01°13' E 103°41'0 0.0
2017-Sep-16 15:56N 01°13' E 103°41'1 1.8
2017-Sep-16 15:30N 01°13' E 103°41'3 7.0
2017-Sep-16 15:00N 01°12' E 103°37'4 7.3
2017-Sep-16 14:30N 01°11' E 103°34'4 7.8
2017-Sep-16 13:59N 01°11' E 103°30'0 0.3
2017-Sep-16 13:30N 01°11' E 103°30'0 0.8
2017-Sep-16 13:00N 01°12' E 103°30'3 5.9
2017-Sep-16 12:30N 01°14' E 103°31'4 7.4
2017-Sep-16 12:00N 01°17' E 103°33'4 8.2
2017-Sep-16 11:30N 01°21' E 103°33'0 0.4
2017-Sep-16 10:59N 01°21' E 103°33'0 0.0
2017-Sep-16 09:55N 01°21' E 103°33'0 0.0
2017-Sep-16 09:19N 01°21' E 103°33'0 0.0
2017-Sep-16 08:55N 01°21' E 103°33'0 0.0
2017-Sep-16 08:10N 01°21' E 103°33'0 0.0
2017-Sep-16 06:46N 01°21' E 103°33'0 0.0
2017-Sep-16 06:28N 01°21' E 103°33'0 0.0
2017-Sep-16 05:16N 01°21' E 103°33'0 0.0
2017-Sep-16 04:58N 01°21' E 103°33'0 0.0
2017-Sep-16 04:28N 01°21' E 103°33'0 0.0
2017-Sep-16 03:52N 01°21' E 103°33'0 0.0
2017-Sep-16 03:28N 01°21' E 103°33'0 0.0
2017-Sep-16 02:52N 01°21' E 103°33'0 0.0
2017-Sep-16 02:28N 01°21' E 103°33'0 0.0
2017-Sep-16 01:46N 01°21' E 103°33'0 0.0
2017-Sep-16 01:22N 01°21' E 103°33'0 0.0
2017-Sep-16 00:22N 01°21' E 103°33'0 0.0
2017-Sep-15 23:34N 01°21' E 103°33'0 0.1
2017-Sep-15 23:28N 01°21' E 103°33'0 0.0
2017-Sep-15 22:49N 01°21' E 103°33'0 0.0
2017-Sep-15 22:13N 01°21' E 103°33'0 0.0
2017-Sep-15 21:58N 01°21' E 103°33'0 0.0
2017-Sep-15 21:28N 01°21' E 103°33'0 0.0
2017-Sep-15 20:52N 01°21' E 103°33'0 0.0
2017-Sep-15 20:28N 01°21' E 103°33'0 0.3
2017-Sep-15 19:58N 01°21' E 103°33'2 5.0
2017-Sep-15 19:30N 01°19' E 103°33'4 7.9
2017-Sep-15 19:00N 01°15' E 103°32'2 4.8
2017-Sep-15 18:30N 01°13' E 103°31'3 5.8
2017-Sep-15 17:59N 01°12' E 103°29'2 3.9
2017-Sep-15 17:30N 01°11' E 103°27'3 6.0
2017-Sep-15 17:00N 01°12' E 103°25'510.9
2017-Sep-15 16:30N 01°15' E 103°20'  
Track history (hours):
 
Tides and Currents Weather Stations Pressure Air Temp Water Temp Dewpoint Dewpoint Depression Visibility Wind Speed Wind Dir Waves Ship Positions

Ever Develop

Last reported at 2017-Sep-17 19:09 UTC. Time now 2017-Oct-19 05:42 UTC.
Position N 01°19' E 103°18'.
Warning: this ship's position is 31 days out of date.

Type: Ship (hazmat cat D). MMSI: 356391000.

Date/timePositionNaut miles runAvg speedWind from/ knotsBaromVisibWave heightAir tempDewpointWater temp
2017-Sep-17 19:09N 01°19' E 103°18'214.9
2017-Sep-17 18:59N 01°18' E 103°20'714.8
2017-Sep-17 18:30N 01°14' E 103°26'714.2
2017-Sep-17 18:01N 01°12' E 103°33'612.6
2017-Sep-17 17:30N 01°12' E 103°39'5 9.9
2017-Sep-17 17:00N 01°15' E 103°43'4 7.4
2017-Sep-17 16:30N 01°16' E 103°47'0 0.4
2017-Sep-17 16:00N 01°16' E 103°47'0 0.0
2017-Sep-17 15:27N 01°16' E 103°47'0 0.0
2017-Sep-17 15:00N 01°16' E 103°47'0 0.0
2017-Sep-17 14:30N 01°16' E 103°47'0 0.0
2017-Sep-17 14:00N 01°16' E 103°47'0 0.0
2017-Sep-17 13:30N 01°16' E 103°47'0 0.0
2017-Sep-17 12:57N 01°16' E 103°47'0 0.0
2017-Sep-17 12:30N 01°16' E 103°47'0 0.0
2017-Sep-17 12:00N 01°16' E 103°47'0 0.0
2017-Sep-17 11:27N 01°16' E 103°47'0 0.1
2017-Sep-17 10:57N 01°16' E 103°47'0 0.0
2017-Sep-17 10:27N 01°16' E 103°47'0 0.0
2017-Sep-17 10:00N 01°16' E 103°47'0 0.0
2017-Sep-17 09:30N 01°16' E 103°47'0 0.1
2017-Sep-17 09:00N 01°16' E 103°47'0 0.1
2017-Sep-17 08:30N 01°16' E 103°47'0 0.0
2017-Sep-17 08:00N 01°16' E 103°47'0 0.0
2017-Sep-17 07:30N 01°16' E 103°47'0 0.0
2017-Sep-17 07:00N 01°16' E 103°47'0 0.0
2017-Sep-17 06:30N 01°16' E 103°47'0 0.0
2017-Sep-17 05:57N 01°16' E 103°47'0 0.0
2017-Sep-17 05:30N 01°16' E 103°47'0 0.1
2017-Sep-17 05:01N 01°16' E 103°47'2 3.7
2017-Sep-17 04:31N 01°15' E 103°45'4 8.9
2017-Sep-17 04:01N 01°13' E 103°41'0 0.7
2017-Sep-17 03:29N 01°13' E 103°41'0 0.1
2017-Sep-17 02:53N 01°13' E 103°41'0 0.1
2017-Sep-17 02:29N 01°13' E 103°41'0 0.1
2017-Sep-17 01:56N 01°13' E 103°41'0 0.0
2017-Sep-17 01:29N 01°13' E 103°41'0 0.1
2017-Sep-17 00:56N 01°13' E 103°41'0 0.0
2017-Sep-17 00:29N 01°13' E 103°41'0 0.2
2017-Sep-16 23:56N 01°13' E 103°41'0 0.2
2017-Sep-16 23:29N 01°13' E 103°41'0 0.2
2017-Sep-16 22:59N 01°13' E 103°41'0 0.0
2017-Sep-16 22:29N 01°13' E 103°41'0 0.1
2017-Sep-16 21:56N 01°13' E 103°41'0 0.0
2017-Sep-16 21:29N 01°13' E 103°41'0 0.0
2017-Sep-16 20:56N 01°13' E 103°41'0 0.0
2017-Sep-16 20:29N 01°13' E 103°41'0 0.0
2017-Sep-16 19:56N 01°13' E 103°41'0 0.0
2017-Sep-16 19:29N 01°13' E 103°41'0 0.0
2017-Sep-16 18:56N 01°13' E 103°41'0 0.0
2017-Sep-16 18:29N 01°13' E 103°41'0 0.0
2017-Sep-16 17:59N 01°13' E 103°41'0 0.0
2017-Sep-16 17:29N 01°13' E 103°41'0 0.0
2017-Sep-16 16:59N 01°13' E 103°41'0 0.0
2017-Sep-16 16:29N 01°13' E 103°41'0 0.0
2017-Sep-16 15:56N 01°13' E 103°41'1 1.8
2017-Sep-16 15:30N 01°13' E 103°41'3 7.0
2017-Sep-16 15:00N 01°12' E 103°37'4 7.3
2017-Sep-16 14:30N 01°11' E 103°34'4 7.8
2017-Sep-16 13:59N 01°11' E 103°30'0 0.3
2017-Sep-16 13:30N 01°11' E 103°30'0 0.8
2017-Sep-16 13:00N 01°12' E 103°30'3 5.9
2017-Sep-16 12:30N 01°14' E 103°31'4 7.4
2017-Sep-16 12:00N 01°17' E 103°33'4 8.2
2017-Sep-16 11:30N 01°21' E 103°33'0 0.4
2017-Sep-16 10:59N 01°21' E 103°33'0 0.0
2017-Sep-16 09:55N 01°21' E 103°33'0 0.0
2017-Sep-16 09:19N 01°21' E 103°33'0 0.0
2017-Sep-16 08:55N 01°21' E 103°33'0 0.0
2017-Sep-16 08:10N 01°21' E 103°33'0 0.0
2017-Sep-16 06:46N 01°21' E 103°33'0 0.0
2017-Sep-16 06:28N 01°21' E 103°33'0 0.0
2017-Sep-16 05:16N 01°21' E 103°33'0 0.0
2017-Sep-16 04:58N 01°21' E 103°33'0 0.0
2017-Sep-16 04:28N 01°21' E 103°33'0 0.0
2017-Sep-16 03:52N 01°21' E 103°33'0 0.0
2017-Sep-16 03:28N 01°21' E 103°33'0 0.0
2017-Sep-16 02:52N 01°21' E 103°33'0 0.0
2017-Sep-16 02:28N 01°21' E 103°33'0 0.0
2017-Sep-16 01:46N 01°21' E 103°33'0 0.0
2017-Sep-16 01:22N 01°21' E 103°33'0 0.0
2017-Sep-16 00:22N 01°21' E 103°33'0 0.0
2017-Sep-15 23:34N 01°21' E 103°33'0 0.1
2017-Sep-15 23:28N 01°21' E 103°33'0 0.0
2017-Sep-15 22:49N 01°21' E 103°33'0 0.0
2017-Sep-15 22:13N 01°21' E 103°33'0 0.0
2017-Sep-15 21:58N 01°21' E 103°33'0 0.0
2017-Sep-15 21:28N 01°21' E 103°33'0 0.0
2017-Sep-15 20:52N 01°21' E 103°33'0 0.0
2017-Sep-15 20:28N 01°21' E 103°33'0 0.3
2017-Sep-15 19:58N 01°21' E 103°33'2 5.0
2017-Sep-15 19:30N 01°19' E 103°33'4 7.9
2017-Sep-15 19:00N 01°15' E 103°32'2 4.8
2017-Sep-15 18:30N 01°13' E 103°31'3 5.8
2017-Sep-15 17:59N 01°12' E 103°29'2 3.9
2017-Sep-15 17:30N 01°11' E 103°27'3 6.0
2017-Sep-15 17:00N 01°12' E 103°25'510.9
2017-Sep-15 16:30N 01°15' E 103°20'  

Dump ship's entire track history